Time;durP1;ratioP1;P1;durP2;ratioP2;P2;SDS_P1;SDS_P2;PMS_P1;PMS_P2;Temp;Humidity;BMP_temperature;BMP_pressure;BME280_temperature;BME280_humidity;BME280_pressure;Samples;Min_cycle;Max_cycle;Signal;HPM_P1;HPM_P2
2023/09/13 00:01:31;;;;;;;522.13;294.97;;;20.70;99.90;;;;;;4974597;28;20388;-53
2023/09/13 00:03:58;;;;;;;547.07;306.83;;;;;;;;;;4957982;28;20212;-53
2023/09/13 00:06:24;;;;;;;494.40;276.20;;;;;;;;;;4959626;28;20193;-52
2023/09/13 00:08:50;;;;;;;612.97;349.87;;;;;;;;;;4952223;28;20221;-53
2023/09/13 00:11:16;;;;;;;579.67;333.80;;;;;;;;;;4941565;28;20292;-53
2023/09/13 00:13:42;;;;;;;576.23;328.17;;;;;;;;;;4943813;28;20315;-53
2023/09/13 00:16:08;;;;;;;573.27;326.30;;;;;;;;;;4956857;28;20717;-53
2023/09/13 00:18:34;;;;;;;550.97;315.47;;;;;;;;;;4956943;28;20301;-53
2023/09/13 00:21:00;;;;;;;568.33;317.97;;;;;;;;;;4948806;28;20233;-52
2023/09/13 00:23:26;;;;;;;530.50;297.27;;;;;;;;;;4954790;28;20231;-53
2023/09/13 00:25:52;;;;;;;568.03;331.53;;;;;;;;;;4948866;28;20233;-51
2023/09/13 00:28:18;;;;;;;579.37;325.00;;;;;;;;;;4950671;28;20220;-52
2023/09/13 00:30:44;;;;;;;548.37;305.70;;;;;;;;;;4944498;28;20248;-52
2023/09/13 00:33:10;;;;;;;515.80;289.23;;;;;;;;;;4951467;28;20313;-52
2023/09/13 00:35:36;;;;;;;550.20;310.77;;;20.30;99.90;;;;;;4950474;28;20681;-52
2023/09/13 00:38:02;;;;;;;554.53;306.57;;;;;;;;;;4954169;28;20279;-52
2023/09/13 00:40:28;;;;;;;532.50;298.53;;;;;;;;;;4953758;28;20263;-52
2023/09/13 00:42:54;;;;;;;541.03;297.97;;;;;;;;;;4962645;28;20193;-52
2023/09/13 00:45:20;;;;;;;571.20;326.97;;;;;;;;;;4954153;28;20197;-52
2023/09/13 00:47:47;;;;;;;526.30;291.30;;;;;;;;;;4958943;28;20580;-52
2023/09/13 00:50:15;;;;;;;606.73;347.70;;;20.00;99.90;;;;;;4935086;28;20757;-52
2023/09/13 00:52:41;;;;;;;496.37;276.17;;;;;;;;;;4959729;28;20554;-52
2023/09/13 00:55:09;;;;;;;515.60;286.23;;;20.00;99.90;;;;;;4949453;28;20213;-53
2023/09/13 00:57:35;;;;;;;588.70;331.37;;;;;;;;;;4945059;28;20229;-53
2023/09/13 01:00:09;;;;;;;588.83;332.70;;;20.00;99.90;;;;;;4945896;28;20213;-53
2023/09/13 01:02:35;;;;;;;514.37;282.57;;;;;;;;;;4955647;28;20236;-53
2023/09/13 01:05:02;;;;;;;560.17;312.80;;;19.80;99.90;;;;;;4949893;28;20436;-53
2023/09/13 01:07:28;;;;;;;564.97;317.30;;;;;;;;;;4949201;28;20240;-53
2023/09/13 01:09:54;;;;;;;549.50;307.33;;;;;;;;;;4956531;28;20193;-53
2023/09/13 01:12:22;;;;;;;565.60;313.43;;;;;;;;;;4938112;28;20419;-53
2023/09/13 01:14:48;;;;;;;528.70;287.67;;;;;;;;;;4946532;28;20777;-54
2023/09/13 01:17:20;;;;;;;519.63;282.97;;;19.80;99.90;;;;;;4961107;28;20266;-53
2023/09/13 01:20:16;;;;;;;620.23;350.50;;;19.60;99.90;;;;;;4938368;28;20526;-53
2023/09/13 01:23:11;;;;;;;489.90;264.93;;;19.70;99.90;;;;;;4949471;28;20560;-52
2023/09/13 01:26:01;;;;;;;571.30;309.60;;;19.60;99.90;;;;;;4940769;28;20217;-52
2023/09/13 01:28:46;;;;;;;555.50;306.10;;;19.40;99.90;;;;;;4945532;28;20232;-52
2023/09/13 01:31:12;;;;;;;497.03;269.47;;;;;;;;;;4947201;28;20332;-53
2023/09/13 01:33:38;;;;;;;590.53;327.70;;;;;;;;;;4962898;28;20682;-52
2023/09/13 01:36:04;;;;;;;502.57;278.37;;;19.50;99.90;;;;;;4959429;28;20593;-52
2023/09/13 01:38:30;;;;;;;542.33;296.27;;;19.60;99.90;;;;;;4948596;28;20224;-52
2023/09/13 01:41:07;;;;;;;498.23;276.53;;;19.60;99.90;;;;;;4960953;28;20822;-53
2023/09/13 01:43:33;;;;;;;573.90;319.97;;;;;;;;;;4944145;28;20221;-52
2023/09/13 01:45:59;;;;;;;523.97;288.17;;;19.60;99.90;;;;;;4951610;28;20201;-52
2023/09/13 01:48:25;;;;;;;489.03;259.60;;;;;;;;;;4958194;28;20180;-52
2023/09/13 01:50:53;;;;;;;505.63;276.70;;;19.60;99.90;;;;;;4945705;28;20220;-53
2023/09/13 01:53:19;;;;;;;573.83;318.00;;;;;;;;;;4957501;28;20224;-52
2023/09/13 01:55:45;;;;;;;595.77;327.43;;;;;;;;;;4952083;28;21990;-52
2023/09/13 01:58:11;;;;;;;536.70;288.97;;;;;;;;;;4949915;28;20267;-52
2023/09/13 02:00:37;;;;;;;514.10;279.83;;;;;;;;;;4956128;28;20216;-53
2023/09/13 02:03:03;;;;;;;530.50;287.83;;;;;;;;;;4953567;28;20542;-52
2023/09/13 02:05:28;;;;;;;521.73;277.40;;;;;;;;;;4954993;28;20831;-52
2023/09/13 02:07:54;;;;;;;524.57;283.23;;;;;;;;;;4952086;28;20213;-52
2023/09/13 02:10:20;;;;;;;499.17;260.57;;;;;;;;;;4959338;28;20214;-52
2023/09/13 02:12:46;;;;;;;458.23;239.67;;;;;;;;;;4955058;28;20200;-53
2023/09/13 02:15:12;;;;;;;540.77;285.93;;;;;;;;;;4955071;28;20595;-52
2023/09/13 02:17:38;;;;;;;518.80;279.90;;;;;;;;;;4949229;28;20269;-52
2023/09/13 02:20:05;;;;;;;537.90;288.17;;;;;;;;;;4952062;28;20720;-52
2023/09/13 02:22:31;;;;;;;557.77;298.03;;;;;;;;;;4962420;28;20243;-52
2023/09/13 02:24:57;;;;;;;521.93;276.83;;;;;;;;;;4954858;28;20201;-52
2023/09/13 02:27:23;;;;;;;558.97;304.10;;;;;;;;;;4958444;28;20369;-52
2023/09/13 02:29:49;;;;;;;572.37;313.57;;;;;;;;;;4945249;28;21068;-52
2023/09/13 02:32:14;;;;;;;512.20;277.77;;;19.20;99.90;;;;;;4964716;28;20381;-53
2023/09/13 02:34:43;;;;;;;531.60;281.27;;;19.30;99.90;;;;;;4963039;28;20315;-52
2023/09/13 02:37:09;;;;;;;538.00;287.40;;;;;;;;;;4946564;28;21743;-52
2023/09/13 02:39:39;;;;;;;532.97;284.33;;;19.20;99.90;;;;;;4956752;28;20274;-53
2023/09/13 02:42:06;;;;;;;494.63;261.43;;;19.20;99.90;;;;;;4955108;28;20244;-52
2023/09/13 02:44:33;;;;;;;608.00;331.03;;;;;;;;;;4951134;28;20284;-52
2023/09/13 02:46:59;;;;;;;494.83;260.27;;;19.20;99.90;;;;;;4955067;28;20352;-53
2023/09/13 02:49:25;;;;;;;558.77;291.27;;;;;;;;;;4960463;28;20299;-52
2023/09/13 02:51:52;;;;;;;574.07;300.60;;;19.50;99.90;;;;;;4951733;28;20189;-52
2023/09/13 02:54:18;;;;;;;594.00;321.60;;;;;;;;;;4957131;28;20201;-52
2023/09/13 02:56:45;;;;;;;571.00;303.50;;;19.80;99.90;;;;;;4948377;28;20338;-52
2023/09/13 02:59:11;;;;;;;533.27;278.80;;;;;;;;;;4956081;28;20224;-52
2023/09/13 03:01:37;;;;;;;536.50;282.07;;;;;;;;;;4944413;28;21642;-53
2023/09/13 03:04:03;;;;;;;552.50;275.17;;;;;;;;;;4956278;28;24270;-53
2023/09/13 03:06:32;;;;;;;667.37;319.97;;;;;;;;;;4929020;28;20733;-53
2023/09/13 03:08:58;;;;;;;603.67;299.33;;;;;;;;;;4936453;28;20323;-53
2023/09/13 03:11:24;;;;;;;672.33;322.90;;;;;;;;;;4929410;28;20924;-52
2023/09/13 03:13:51;;;;;;;566.27;280.00;;;;;;;;;;4945509;28;20374;-53
2023/09/13 03:16:22;;;;;;;498.67;240.63;;;19.30;99.90;;;;;;4953356;28;20230;-53
2023/09/13 03:18:50;;;;;;;539.30;263.53;;;19.20;99.90;;;;;;4935655;28;20192;-52
2023/09/13 03:21:20;;;;;;;543.80;265.80;;;;;;;;;;4952428;28;20217;-53
2023/09/13 03:23:50;;;;;;;586.10;280.37;;;19.30;99.90;;;;;;4941319;28;20252;-52
2023/09/13 03:26:20;;;;;;;563.60;268.60;;;22.00;99.90;;;;;;4939171;28;20214;-53
2023/09/13 03:28:51;;;;;;;554.70;264.43;;;19.20;99.90;;;;;;4945217;28;20279;-52
2023/09/13 03:31:27;;;;;;;583.60;281.60;;;19.20;99.90;;;;;;4934691;28;20962;-52
2023/09/13 03:33:54;;;;;;;550.67;269.40;;;19.20;99.90;;;;;;4938490;28;21008;-53
2023/09/13 03:36:20;;;;;;;502.43;249.63;;;19.20;99.90;;;;;;4954211;28;20227;-53
2023/09/13 03:38:46;;;;;;;591.93;293.97;;;;;;;;;;4930705;28;20217;-53
2023/09/13 03:41:14;;;;;;;544.17;270.30;;;19.30;99.90;;;;;;4954412;28;20310;-53
2023/09/13 03:43:40;;;;;;;648.87;314.47;;;;;;;;;;4942382;28;20902;-53
2023/09/13 03:46:06;;;;;;;549.70;270.40;;;19.20;99.90;;;;;;4946102;28;20562;-53
2023/09/13 03:48:33;;;;;;;584.17;279.40;;;;;;;;;;4943243;28;20190;-53
2023/09/13 03:50:59;;;;;;;570.37;275.67;;;;;;;;;;4944270;28;20213;-54
2023/09/13 03:53:25;;;;;;;636.27;305.37;;;;;;;;;;4937003;28;20381;-54
2023/09/13 03:55:52;;;;;;;625.70;306.37;;;19.10;99.90;;;;;;4926885;28;20221;-54
2023/09/13 03:58:18;;;;;;;550.67;272.60;;;;;;;;;;4935044;28;20243;-53
2023/09/13 04:00:44;;;;;;;554.50;269.87;;;;;;;;;;4942627;28;20935;-54
2023/09/13 04:03:10;;;;;;;546.20;272.87;;;;;;;;;;4972359;22;20206;-70
2023/09/13 04:05:36;;;;;;;548.03;284.80;;;;;;;;;;4968859;28;20276;-70
2023/09/13 04:08:02;;;;;;;529.20;272.43;;;;;;;;;;4945268;28;20207;-71
2023/09/13 04:10:28;;;;;;;530.00;276.87;;;;;;;;;;4955499;28;20228;-70
2023/09/13 04:12:54;;;;;;;502.73;258.80;;;;;;;;;;4953675;28;20193;-70
2023/09/13 04:15:20;;;;;;;503.20;269.37;;;;;;;;;;4957504;28;20266;-69
2023/09/13 04:17:46;;;;;;;527.97;277.17;;;;;;;;;;4953024;28;20331;-70
2023/09/13 04:20:12;;;;;;;488.53;256.23;;;;;;;;;;4949151;28;20234;-70
2023/09/13 04:22:38;;;;;;;523.77;276.30;;;;;;;;;;4942352;28;20225;-70
2023/09/13 04:25:04;;;;;;;491.83;257.60;;;;;;;;;;4960123;28;20681;-70
2023/09/13 04:27:30;;;;;;;521.00;273.40;;;;;;;;;;4954605;28;20194;-70
2023/09/13 04:29:56;;;;;;;517.90;269.90;;;;;;;;;;4949401;28;20856;-69
2023/09/13 04:32:23;;;;;;;512.20;267.93;;;;;;;;;;4958895;28;20846;-70
2023/09/13 04:34:49;;;;;;;486.90;257.10;;;;;;;;;;4952030;28;20232;-70
2023/09/13 04:37:15;;;;;;;481.63;253.60;;;;;;;;;;4949454;28;20229;-71
2023/09/13 04:39:41;;;;;;;516.27;277.47;;;;;;;;;;4951981;28;20293;-70
2023/09/13 04:42:07;;;;;;;486.40;255.57;;;;;;;;;;4933450;28;20239;-70
2023/09/13 04:44:33;;;;;;;532.03;284.47;;;;;;;;;;4953604;28;20837;-70
2023/09/13 04:47:02;;;;;;;505.00;259.93;;;;;;;;;;4954247;28;20309;-70
2023/09/13 04:49:28;;;;;;;487.80;262.80;;;;;;;;;;4939728;28;20209;-70
2023/09/13 04:51:54;;;;;;;475.20;255.20;;;18.90;99.90;;;;;;4966824;28;20193;-69
2023/09/13 04:54:23;;;;;;;485.83;248.43;;;;;;;;;;4971122;28;20193;-71
2023/09/13 04:56:49;;;;;;;479.17;250.80;;;18.90;99.90;;;;;;4968954;28;20380;-70
2023/09/13 04:59:15;;;;;;;501.57;258.80;;;;;;;;;;4952630;28;20221;-70
2023/09/13 05:01:41;;;;;;;506.57;266.13;;;;;;;;;;4954260;28;20340;-70
2023/09/13 05:04:07;;;;;;;498.70;261.50;;;;;;;;;;4953234;28;20317;-71
2023/09/13 05:06:33;;;;;;;523.57;281.73;;;;;;;;;;4968461;28;20694;-70
2023/09/13 05:08:59;;;;;;;495.90;258.23;;;;;;;;;;4971872;28;20213;-71
2023/09/13 05:11:25;;;;;;;496.30;262.23;;;;;;;;;;4957335;28;20221;-71
2023/09/13 05:14:07;;;;;;;514.07;269.97;;;18.90;99.90;;;;;;4953648;28;20502;-67
2023/09/13 05:16:33;;;;;;;496.73;263.30;;;;;;;;;;4955704;28;20281;-68
2023/09/13 05:18:59;;;;;;;520.27;276.27;;;;;;;;;;4951588;28;20182;-67
2023/09/13 05:21:24;;;;;;;497.57;263.87;;;;;;;;;;4952583;28;20222;-68
2023/09/13 05:23:50;;;;;;;517.10;271.53;;;;;;;;;;4947302;28;20231;-68
2023/09/13 05:26:16;;;;;;;499.67;260.63;;;;;;;;;;4963517;28;20718;-67
2023/09/13 05:28:42;;;;;;;505.87;270.53;;;;;;;;;;4960344;28;20238;-68
2023/09/13 05:31:08;;;;;;;468.43;241.23;;;;;;;;;;4968555;28;20224;-67
2023/09/13 05:33:34;;;;;;;476.50;244.93;;;;;;;;;;4943636;28;20178;-68
2023/09/13 05:36:00;;;;;;;605.63;338.23;;;;;;;;;;4959617;28;20297;-67
2023/09/13 05:38:26;;;;;;;485.70;250.43;;;;;;;;;;4951916;28;20232;-68
2023/09/13 05:40:52;;;;;;;459.63;235.33;;;;;;;;;;4941470;28;20221;-68
2023/09/13 05:43:18;;;;;;;481.10;241.93;;;;;;;;;;4959108;28;20341;-69
2023/09/13 05:45:44;;;;;;;533.37;280.20;;;;;;;;;;4949587;28;20224;-68
2023/09/13 05:48:10;;;;;;;483.10;251.17;;;;;;;;;;4959159;28;20242;-66
2023/09/13 05:50:36;;;;;;;519.03;267.73;;;19.20;99.90;;;;;;4956017;28;20871;-70
2023/09/13 05:53:02;;;;;;;524.70;279.90;;;;;;;;;;4950130;28;20224;-65
2023/09/13 05:55:28;;;;;;;505.83;268.33;;;;;;;;;;4956241;28;20210;-67
2023/09/13 05:57:54;;;;;;;526.37;277.53;;;;;;;;;;4962430;28;20232;-67
2023/09/13 06:00:20;;;;;;;512.40;272.13;;;;;;;;;;4948370;28;20298;-67
2023/09/13 06:02:46;;;;;;;537.97;283.73;;;;;;;;;;4943892;28;20217;-67
2023/09/13 06:05:12;;;;;;;484.27;249.77;;;;;;;;;;4965602;28;20229;-67
2023/09/13 06:07:38;;;;;;;556.40;290.27;;;;;;;;;;4954953;28;20216;-65
2023/09/13 06:10:04;;;;;;;481.33;246.10;;;;;;;;;;4952057;28;20225;-65
2023/09/13 06:12:33;;;;;;;577.87;313.50;;;19.30;99.90;;;;;;4950291;28;20671;-65
2023/09/13 06:14:59;;;;;;;533.53;278.57;;;;;;;;;;4953341;28;20217;-60
2023/09/13 06:17:25;;;;;;;574.13;305.00;;;;;;;;;;4925744;28;20229;-59
2023/09/13 06:19:51;;;;;;;541.30;286.23;;;19.30;99.90;;;;;;4956241;28;20297;-59
2023/09/13 06:22:17;;;;;;;606.40;331.10;;;;;;;;;;4942766;28;20238;-60
2023/09/13 06:24:44;;;;;;;528.93;272.03;;;;;;;;;;4944851;28;20342;-61
2023/09/13 06:27:10;;;;;;;519.23;267.57;;;;;;;;;;4945888;28;20216;-60
2023/09/13 06:29:35;;;;;;;509.50;261.40;;;;;;;;;;4958362;28;20933;-60
2023/09/13 06:32:02;;;;;;;496.43;255.70;;;19.50;99.90;;;;;;4958854;28;20279;-60
2023/09/13 06:34:28;;;;;;;546.77;292.10;;;;;;;;;;4960802;28;20226;-62
2023/09/13 06:36:55;;;;;;;521.87;277.40;;;;;;;;;;4963535;28;20309;-59
2023/09/13 06:39:21;;;;;;;516.30;262.60;;;;;;;;;;4970996;28;21174;-60
2023/09/13 06:41:47;;;;;;;546.23;289.03;;;;;;;;;;4945298;28;20209;-60
2023/09/13 06:44:13;;;;;;;488.37;251.03;;;;;;;;;;4970850;28;20237;-60
2023/09/13 06:46:40;;;;;;;503.20;270.03;;;19.80;99.90;;;;;;4957643;28;20836;-60
2023/09/13 06:49:06;;;;;;;467.63;240.87;;;19.70;99.90;;;;;;4971367;28;20346;-65
2023/09/13 06:51:32;;;;;;;525.20;281.43;;;;;;;;;;4962174;28;20669;-65
2023/09/13 06:53:58;;;;;;;538.13;284.03;;;;;;;;;;4968745;28;20228;-65
2023/09/13 06:56:23;;;;;;;491.97;254.37;;;;;;;;;;4968328;28;20308;-65
2023/09/13 06:58:49;;;;;;;538.17;286.93;;;;;;;;;;4972260;28;20313;-65
2023/09/13 07:01:15;;;;;;;483.73;249.80;;;;;;;;;;4967583;28;20225;-66
2023/09/13 07:03:41;;;;;;;496.53;264.47;;;;;;;;;;4966954;28;20209;-66
2023/09/13 07:06:07;;;;;;;511.67;268.20;;;;;;;;;;4966465;28;20218;-65
2023/09/13 07:08:33;;;;;;;486.73;255.93;;;;;;;;;;4976752;28;20972;-65
2023/09/13 07:11:01;;;;;;;502.13;261.80;;;;;;;;;;4937707;28;20607;-65
2023/09/13 07:13:27;;;;;;;498.70;267.40;;;;;;;;;;4972208;28;21640;-65
2023/09/13 07:15:53;;;;;;;498.37;263.63;;;;;;;;;;4964388;28;20241;-65
2023/09/13 07:18:19;;;;;;;502.33;261.10;;;;;;;;;;4971187;28;20547;-65
2023/09/13 07:20:45;;;;;;;517.03;277.60;;;20.40;99.90;;;;;;4965640;28;20227;-65
2023/09/13 07:23:11;;;;;;;552.63;304.50;;;;;;;;;;4974336;28;20271;-65
2023/09/13 07:25:37;;;;;;;520.47;281.40;;;;;;;;;;4979260;28;20663;-65
2023/09/13 07:28:03;;;;;;;511.50;276.50;;;;;;;;;;4974575;28;21686;-65
2023/09/13 07:30:29;;;;;;;483.57;261.53;;;;;;;;;;4950093;28;20765;-65
2023/09/13 07:32:55;;;;;;;507.67;284.70;;;;;;;;;;4941167;28;20555;-65
2023/09/13 07:35:21;;;;;;;527.93;289.43;;;;;;;;;;4968459;28;20213;-66
2023/09/13 07:37:47;;;;;;;561.13;315.37;;;20.60;99.90;;;;;;4961554;28;20275;-64
2023/09/13 07:40:13;;;;;;;529.13;287.23;;;;;;;;;;4969951;28;20229;-64
2023/09/13 07:42:39;;;;;;;493.30;273.03;;;;;;;;;;4974777;28;20232;-65
2023/09/13 07:45:06;;;;;;;524.67;294.67;;;20.70;99.90;;;;;;4967667;28;20715;-64
2023/09/13 07:47:32;;;;;;;491.50;268.17;;;;;;;;;;4965967;28;20213;-64
2023/09/13 07:49:59;;;;;;;501.30;276.67;;;20.70;99.90;;;;;;4967746;28;20213;-64
2023/09/13 07:52:25;;;;;;;515.07;281.93;;;;;;;;;;4964322;28;20214;-64
2023/09/13 07:54:51;;;;;;;540.23;297.47;;;;;;;;;;4962436;28;20197;-65
2023/09/13 07:57:17;;;;;;;499.00;265.40;;;;;;;;;;4961944;28;20287;-65
2023/09/13 07:59:43;;;;;;;547.03;309.00;;;;;;;;;;4956714;28;20280;-65
2023/09/13 08:02:09;;;;;;;487.30;265.07;;;;;;;;;;4961386;28;20668;-65
2023/09/13 08:04:35;;;;;;;560.30;325.13;;;;;;;;;;4951214;28;20305;-65
2023/09/13 08:07:02;;;;;;;517.47;289.33;;;20.90;99.90;;;;;;4958984;28;21154;-65
2023/09/13 08:09:28;;;;;;;539.47;305.27;;;;;;;;;;4961518;28;20277;-65
2023/09/13 08:11:54;;;;;;;513.97;284.63;;;;;;;;;;4954741;28;20229;-65
2023/09/13 08:14:20;;;;;;;490.93;269.37;;;;;;;;;;4936425;28;20222;-65
2023/09/13 08:16:46;;;;;;;536.37;299.53;;;;;;;;;;4959776;28;20214;-65
2023/09/13 08:19:12;;;;;;;519.20;292.53;;;20.10;99.90;;;;;;4955922;28;20458;-65
2023/09/13 08:21:38;;;;;;;503.97;283.40;;;;;;;;;;4954544;28;20225;-65
2023/09/13 08:24:04;;;;;;;550.43;317.43;;;21.00;99.90;;;;;;4958122;28;20226;-66
2023/09/13 08:26:30;;;;;;;521.43;299.30;;;;;;;;;;4963268;28;20221;-65
2023/09/13 08:28:57;;;;;;;526.90;300.93;;;;;;;;;;4968777;28;20229;-65
2023/09/13 08:31:26;;;;;;;494.77;274.93;;;;;;;;;;4973538;28;20209;-65
2023/09/13 08:33:53;;;;;;;511.67;289.77;;;21.70;99.90;;;;;;4970477;28;20224;-64
2023/09/13 08:36:19;;;;;;;516.63;296.70;;;;;;;;;;4967614;28;20221;-65
2023/09/13 08:38:45;;;;;;;475.27;272.53;;;;;;;;;;4944681;28;20225;-65
2023/09/13 08:41:14;;;;;;;480.43;270.90;;;21.70;99.90;;;;;;4950203;28;20253;-65
2023/09/13 08:43:40;;;;;;;539.17;310.30;;;21.80;99.90;;;;;;4963442;28;20275;-66
2023/09/13 08:46:06;;;;;;;539.20;306.27;;;21.80;99.90;;;;;;4950314;28;20225;-66
2023/09/13 08:48:33;;;;;;;533.83;312.80;;;21.80;99.90;;;;;;4952619;28;20217;-65
2023/09/13 08:51:00;;;;;;;546.40;314.57;;;21.90;99.90;;;;;;4952323;28;20619;-65
2023/09/13 08:53:27;;;;;;;531.70;307.23;;;21.80;99.90;;;;;;4955629;28;21511;-65
2023/09/13 08:55:55;;;;;;;541.60;312.83;;;21.90;99.90;;;;;;4951149;28;20260;-65
2023/09/13 08:58:21;;;;;;;529.70;306.03;;;;;;;;;;4951331;28;20283;-64
2023/09/13 09:00:49;;;;;;;538.03;303.90;;;21.90;99.90;;;;;;4961246;28;20599;-65
2023/09/13 09:03:17;;;;;;;500.23;282.60;;;21.80;99.90;;;;;;4952325;28;20618;-65
2023/09/13 09:05:45;;;;;;;506.80;279.73;;;21.90;99.90;;;;;;4958193;28;20218;-65
2023/09/13 09:08:11;;;;;;;535.23;313.00;;;;;;;;;;4946789;28;20299;-65
2023/09/13 09:10:37;;;;;;;539.73;305.07;;;;;;;;;;4956708;28;20296;-65
2023/09/13 09:13:04;;;;;;;565.00;327.07;;;22.00;99.90;;;;;;4949239;28;20222;-65
2023/09/13 09:15:33;;;;;;;570.33;327.73;;;22.10;99.90;;;;;;4945588;28;20205;-65
2023/09/13 09:18:01;;;;;;;556.97;314.30;;;22.10;99.90;;;;;;4951953;28;20314;-65
2023/09/13 09:20:28;;;;;;;538.17;303.17;;;;;;;;;;4953144;28;20568;-64
2023/09/13 09:22:58;;;;;;;543.97;311.07;;;22.40;99.90;;;;;;4953343;28;20213;-64
2023/09/13 09:25:25;;;;;;;534.77;307.63;;;22.30;99.90;;;;;;4960711;28;20320;-65
2023/09/13 09:27:52;;;;;;;521.87;298.13;;;;;;;;;;4931154;28;20205;-64
2023/09/13 09:30:28;;;;;;;557.43;321.40;;;22.50;99.90;;;;;;4949975;28;20270;-65
2023/09/13 09:33:00;;;;;;;572.20;337.40;;;22.50;99.90;;;;;;4953720;28;20283;-65
2023/09/13 09:35:26;;;;;;;592.53;346.67;;;;;;;;;;4954137;28;20217;-65
2023/09/13 09:37:52;;;;;;;547.27;327.10;;;;;;;;;;4947442;28;20236;-65
2023/09/13 09:40:17;;;;;;;564.43;336.43;;;;;;;;;;4955376;28;20248;-66
2023/09/13 09:42:43;;;;;;;503.07;292.63;;;;;;;;;;4966527;28;20604;-65
2023/09/13 09:45:09;;;;;;;392.90;241.70;;;;;;;;;;4978660;28;20182;-65
2023/09/13 09:47:41;;;;;;;391.43;245.07;;;22.50;1.00;;;;;;4982124;28;20233;-65
2023/09/13 09:50:10;;;;;;;437.93;273.37;;;22.70;99.90;;;;;;4979230;28;20313;-65
2023/09/13 09:52:36;;;;;;;390.77;243.30;;;;;;;;;;4981632;28;20225;-65
2023/09/13 09:55:04;;;;;;;422.57;268.10;;;;;;;;;;4982541;28;20182;-66
2023/09/13 09:57:30;;;;;;;384.87;238.40;;;;;;;;;;4980121;28;20667;-65
2023/09/13 09:59:58;;;;;;;394.33;249.03;;;23.10;99.90;;;;;;4983585;28;20220;-65
2023/09/13 10:02:28;;;;;;;392.87;247.77;;;22.90;76.80;;;;;;4984745;28;20685;-65
2023/09/13 10:04:53;;;;;;;409.47;260.53;;;23.40;1.00;;;;;;4982838;28;20603;-65
2023/09/13 10:07:19;;;;;;;395.53;250.70;;;23.40;77.50;;;;;;4978452;28;20219;-65
2023/09/13 10:09:46;;;;;;;424.20;274.23;;;23.30;99.90;;;;;;4983294;28;20189;-65
2023/09/13 10:12:13;;;;;;;397.60;257.67;;;23.40;99.90;;;;;;4976620;28;20276;-65
2023/09/13 10:14:40;;;;;;;386.97;251.83;;;23.10;1.00;;;;;;4984709;28;20224;-66
2023/09/13 10:17:06;;;;;;;421.30;269.57;;;23.00;1.00;;;;;;4981139;28;20233;-66
2023/09/13 10:19:34;;;;;;;407.23;260.63;;;22.90;1.00;;;;;;4984116;28;20560;-65
2023/09/13 10:22:00;;;;;;;418.17;265.30;;;22.90;1.00;;;;;;4981892;28;20188;-65
2023/09/13 10:24:35;;;;;;;398.40;252.13;;;23.10;1.00;;;;;;4984394;28;20200;-65
2023/09/13 10:27:07;;;;;;;406.30;258.57;;;23.00;99.90;;;;;;4979272;28;20225;-65
2023/09/13 10:29:40;;;;;;;418.53;264.43;;;23.10;99.90;;;;;;4980055;28;20209;-66
2023/09/13 10:32:13;;;;;;;546.97;360.53;;;23.10;1.00;;;;;;4973089;28;20217;-66
2023/09/13 10:34:53;;;;;;;557.23;326.80;;;23.10;1.00;;;;;;4948046;28;20214;-66
2023/09/13 10:37:41;;;;;;;589.63;349.10;;;23.20;1.00;;;;;;4938964;28;20231;-60
2023/09/13 10:40:10;;;;;;;549.53;327.40;;;23.20;1.00;;;;;;4953269;28;20282;-61
2023/09/13 10:42:39;;;;;;;539.63;320.97;;;20.90;1.00;;;;;;4951563;28;20291;-60
2023/09/13 10:45:10;;;;;;;599.53;357.73;;;23.50;99.90;;;;;;4945501;28;20305;-59
2023/09/13 10:47:39;;;;;;;525.83;317.30;;;23.70;1.00;;;;;;4950415;28;20225;-59
2023/09/13 10:50:07;;;;;;;573.57;346.37;;;25.00;1.00;;;;;;4945499;28;20213;-59
2023/09/13 10:52:34;;;;;;;511.63;330.77;;;23.40;66.80;;;;;;4960478;28;20285;-60
2023/09/13 10:55:00;;;;;;;512.57;309.57;;;;;;;;;;4949500;28;20178;-60
2023/09/13 10:57:27;;;;;;;577.40;348.23;;;;;;;;;;4945600;28;20731;-59
2023/09/13 10:59:53;;;;;;;557.10;340.97;;;;;;;;;;4946816;28;20324;-60
2023/09/13 11:02:22;;;;;;;549.33;334.47;;;;;;;;;;4951596;28;20237;-59
2023/09/13 11:04:48;;;;;;;523.10;319.13;;;23.20;99.90;;;;;;4949154;28;20248;-59
2023/09/13 11:07:15;;;;;;;539.80;325.57;;;23.30;61.00;;;;;;4945613;28;20225;-60
2023/09/13 11:09:42;;;;;;;561.87;343.27;;;;;;;;;;4932542;28;20186;-59
2023/09/13 11:12:14;;;;;;;558.13;336.87;;;23.60;99.90;;;;;;4949709;28;20297;-59
2023/09/13 11:14:46;;;;;;;531.20;324.33;;;23.60;1.00;;;;;;4949136;28;20304;-59
2023/09/13 11:17:37;;;;;;;569.17;342.13;;;23.40;1.00;;;;;;4950245;28;20229;-60
2023/09/13 11:20:38;;;;;;;595.67;364.13;;;23.20;99.90;;;;;;4953529;28;20237;-59
2023/09/13 11:23:09;;;;;;;556.90;324.00;;;;;;;;;;4954368;28;20228;-59
2023/09/13 11:25:40;;;;;;;599.07;359.27;;;23.20;99.90;;;;;;4949816;28;20405;-59
2023/09/13 11:28:08;;;;;;;540.73;323.97;;;23.40;57.90;;;;;;4954737;28;20225;-58
2023/09/13 11:30:50;;;;;;;515.73;307.07;;;23.50;99.90;;;;;;4957606;28;20232;-59
2023/09/13 11:33:16;;;;;;;545.50;325.20;;;;;;;;;;4956270;28;20230;-59
2023/09/13 11:35:45;;;;;;;531.57;317.07;;;23.60;1.00;;;;;;4959565;28;20310;-59
2023/09/13 11:38:16;;;;;;;557.67;343.00;;;23.50;1.00;;;;;;4949653;28;20367;-59
2023/09/13 11:40:47;;;;;;;543.13;327.60;;;23.30;99.90;;;;;;4950909;28;20240;-59
2023/09/13 11:43:13;;;;;;;538.03;317.30;;;;;;;;;;4949939;28;20244;-59
2023/09/13 11:45:40;;;;;;;508.80;301.97;;;23.30;99.90;;;;;;4953721;28;20371;-59
2023/09/13 11:48:07;;;;;;;556.57;338.53;;;23.20;1.00;;;;;;4954008;28;20287;-58
2023/09/13 11:50:43;;;;;;;536.53;317.63;;;23.00;1.00;;;;;;4947883;28;20254;-59
2023/09/13 11:53:14;;;;;;;570.87;339.87;;;23.00;99.90;;;;;;4950683;28;21104;-59
2023/09/13 11:55:51;;;;;;;589.67;349.80;;;23.00;1.00;;;;;;4949263;28;20373;-60
2023/09/13 11:58:17;;;;;;;533.37;309.47;;;;;;;;;;4949277;28;20226;-59
2023/09/13 12:00:43;;;;;;;521.47;315.17;;;22.90;99.90;;;;;;4952324;28;20597;-59
2023/09/13 12:03:09;;;;;;;534.73;321.43;;;;;;;;;;4952198;28;20297;-66
2023/09/13 12:05:37;;;;;;;547.40;323.80;;;22.70;1.00;;;;;;4925368;28;20211;-65
2023/09/13 12:08:17;;;;;;;565.63;332.23;;;22.60;1.00;;;;;;4948567;28;20264;-65
2023/09/13 12:10:43;;;;;;;563.90;333.53;;;;;;;;;;4950943;28;20217;-66
2023/09/13 12:13:09;;;;;;;537.80;319.93;;;;;;;;;;4949321;28;21670;-66
2023/09/13 12:15:34;;;;;;;527.00;305.03;;;23.30;1.00;;;;;;4953491;28;20193;-65
2023/09/13 12:18:02;;;;;;;535.87;320.57;;;23.40;1.00;;;;;;4956532;28;20211;-66
2023/09/13 12:20:33;;;;;;;556.30;336.40;;;23.60;99.90;;;;;;4947943;28;20813;-66
2023/09/13 12:22:59;;;;;;;546.67;322.70;;;;;;;;;;4952763;28;20205;-66
2023/09/13 12:25:28;;;;;;;560.20;336.13;;;;;;;;;;4951227;28;20694;-68
2023/09/13 12:27:54;;;;;;;531.17;320.57;;;;;;;;;;4948648;28;20206;-66
2023/09/13 12:30:20;;;;;;;541.47;334.87;;;;;;;;;;4949972;28;20237;-66
2023/09/13 12:32:48;;;;;;;530.13;329.13;;;;;;;;;;4957980;28;20221;-66
2023/09/13 12:35:14;;;;;;;537.83;323.60;;;;;;;;;;4946055;28;20226;-66
2023/09/13 12:37:40;;;;;;;537.67;333.67;;;;;;;;;;4944431;28;20229;-66
2023/09/13 12:40:15;;;;;;;541.03;335.80;;;24.00;1.00;;;;;;4953869;28;20831;-66
2023/09/13 12:42:43;;;;;;;553.23;342.43;;;24.20;1.00;;;;;;4951605;28;20270;-66
2023/09/13 12:45:09;;;;;;;573.10;360.70;;;;;;;;;;4941295;28;20740;-66
2023/09/13 12:47:37;;;;;;;564.30;360.90;;;;;;;;;;4944775;28;20236;-66
2023/09/13 12:50:03;;;;;;;556.53;346.37;;;;;;;;;;4939089;28;21501;-66
2023/09/13 12:52:29;;;;;;;534.27;333.63;;;24.00;68.20;;;;;;4953584;28;20312;-66
2023/09/13 12:54:56;;;;;;;548.87;333.80;;;24.00;1.00;;;;;;4956153;28;20181;-66
2023/09/13 12:57:22;;;;;;;526.03;332.20;;;;;;;;;;4935720;28;20206;-66
2023/09/13 12:59:50;;;;;;;552.47;351.60;;;24.50;1.00;;;;;;4949633;28;20241;-66
2023/09/13 13:02:17;;;;;;;546.00;340.23;;;24.60;1.00;;;;;;4953333;28;20229;-66
2023/09/13 13:04:43;;;;;;;552.50;345.57;;;;;;;;;;4956294;28;21015;-66
2023/09/13 13:07:10;;;;;;;562.50;359.57;;;;;;;;;;4947382;28;20226;-66
2023/09/13 13:09:36;;;;;;;587.77;385.77;;;23.70;99.90;;;;;;4936610;28;20191;-67
2023/09/13 13:12:02;;;;;;;544.47;349.90;;;;;;;;;;4953075;28;21294;-66